createdAt,value
2023-10-05T00:01:13.132Z,11.28
2023-10-05T00:03:59.867Z,11.31
2023-10-05T00:06:47.856Z,11.31
2023-10-05T00:09:34.182Z,11.31
2023-10-05T00:12:24.343Z,11.30
2023-10-05T00:15:13.099Z,11.30
2023-10-05T00:18:00.049Z,11.29
2023-10-05T00:20:49.601Z,11.29
2023-10-05T00:23:36.834Z,11.28
2023-10-05T00:26:29.986Z,11.27
2023-10-05T00:29:25.580Z,11.27
2023-10-05T00:32:16.908Z,11.29
2023-10-05T00:35:12.825Z,11.29
2023-10-05T00:38:17.555Z,11.26
2023-10-05T00:41:09.496Z,11.24
2023-10-05T00:43:56.820Z,11.23
2023-10-05T00:46:50.285Z,11.18
2023-10-05T00:49:49.947Z,11.19
2023-10-05T00:52:36.765Z,11.16
2023-10-05T00:55:24.223Z,11.13
2023-10-05T00:58:15.902Z,11.12
2023-10-05T01:01:07.064Z,11.11
2023-10-05T01:03:57.142Z,11.12
2023-10-05T01:06:50.609Z,11.10
2023-10-05T01:10:02.931Z,11.11
2023-10-05T01:12:52.608Z,11.11
2023-10-05T01:15:39.694Z,11.11
2023-10-05T01:18:27.468Z,11.10
2023-10-05T01:21:13.652Z,11.09
2023-10-05T01:24:00.278Z,11.10
2023-10-05T01:26:47.357Z,11.09
2023-10-05T01:29:35.315Z,11.07
2023-10-05T01:32:22.188Z,11.01
2023-10-05T01:35:16.283Z,11.03
2023-10-05T01:38:03.565Z,11.02
2023-10-05T01:40:52.619Z,11.02
2023-10-05T01:43:43.764Z,11.00
2023-10-05T01:46:34.088Z,10.98
2023-10-05T01:49:21.245Z,10.97
2023-10-05T01:52:08.960Z,10.96
2023-10-05T01:54:55.535Z,10.94
2023-10-05T01:57:43.854Z,10.90
2023-10-05T02:00:32.626Z,10.87
2023-10-05T02:03:20.500Z,10.86
2023-10-05T02:06:12.526Z,10.84
2023-10-05T02:08:59.215Z,10.83
2023-10-05T02:11:45.969Z,10.80
2023-10-05T02:14:32.167Z,10.77
2023-10-05T02:17:20.532Z,10.75
2023-10-05T02:20:09.513Z,10.72
2023-10-05T02:22:56.082Z,10.69
2023-10-05T02:25:43.602Z,10.71
2023-10-05T02:28:35.192Z,10.71
2023-10-05T02:31:23.324Z,10.70
2023-10-05T02:34:11.325Z,10.67
2023-10-05T02:36:58.002Z,10.67
2023-10-05T02:39:44.698Z,10.67
2023-10-05T02:42:31.283Z,10.67
2023-10-05T02:45:18.653Z,10.66
2023-10-05T02:48:11.224Z,10.63
2023-10-05T02:50:58.608Z,10.62
2023-10-05T02:53:47.676Z,10.61
2023-10-05T02:56:34.756Z,10.59
2023-10-05T02:59:25.525Z,10.58
2023-10-05T03:02:15.888Z,10.58
2023-10-05T03:05:06.476Z,10.59
2023-10-05T03:07:54.733Z,10.54
2023-10-05T03:10:45.239Z,10.57
2023-10-05T03:13:32.473Z,10.58
2023-10-05T03:16:22.888Z,10.60
2023-10-05T03:19:15.879Z,10.61
2023-10-05T03:22:07.100Z,10.62
2023-10-05T03:24:55.587Z,10.63
2023-10-05T03:27:42.989Z,10.64
2023-10-05T03:30:32.159Z,10.65
2023-10-05T03:33:19.165Z,10.64
2023-10-05T03:36:15.113Z,10.65
2023-10-05T03:39:07.687Z,10.68
2023-10-05T03:41:54.346Z,10.71
2023-10-05T03:44:41.452Z,10.69
2023-10-05T03:47:29.822Z,10.71
2023-10-05T03:50:22.737Z,10.69
2023-10-05T03:53:17.040Z,10.75
2023-10-05T03:56:04.006Z,10.78
2023-10-05T03:58:53.680Z,10.81
2023-10-05T04:01:40.319Z,10.83
2023-10-05T04:04:29.657Z,10.83
2023-10-05T04:07:17.235Z,10.83
2023-10-05T04:10:05.021Z,10.85
2023-10-05T04:12:56.324Z,10.90
2023-10-05T04:15:43.055Z,10.89
2023-10-05T04:18:30.975Z,10.94
2023-10-05T04:21:20.604Z,10.96
2023-10-05T04:24:07.671Z,10.99
2023-10-05T04:26:55.329Z,11.00
2023-10-05T04:29:41.818Z,11.01
2023-10-05T04:32:28.228Z,11.03
2023-10-05T04:35:24.223Z,11.05
2023-10-05T04:38:12.275Z,11.07
2023-10-05T04:40:59.810Z,11.06
2023-10-05T04:43:49.225Z,11.08
2023-10-05T04:46:36.160Z,11.09
2023-10-05T04:49:25.741Z,11.08
2023-10-05T04:52:20.590Z,11.09
2023-10-05T04:55:32.317Z,11.11
2023-10-05T04:58:32.184Z,11.12
2023-10-05T05:01:30.949Z,11.12
2023-10-05T05:04:36.874Z,11.13
2023-10-05T05:07:23.513Z,11.12
2023-10-05T05:10:12.948Z,11.11
2023-10-05T05:13:00.352Z,11.13
2023-10-05T05:15:47.456Z,11.14
2023-10-05T05:18:38.999Z,11.06
2023-10-05T05:21:25.870Z,11.14
2023-10-05T05:24:14.927Z,11.15
2023-10-05T05:27:04.731Z,11.15
2023-10-05T05:29:54.469Z,11.16
2023-10-05T05:32:43.642Z,11.21
2023-10-05T05:35:30.368Z,11.23
2023-10-05T05:38:17.205Z,11.25
2023-10-05T05:41:11.044Z,11.22
2023-10-05T05:43:57.704Z,11.30
2023-10-05T05:46:45.724Z,11.34
2023-10-05T05:49:32.374Z,11.42
2023-10-05T05:52:20.151Z,11.50
2023-10-05T05:55:11.940Z,11.59
2023-10-05T05:58:00.873Z,11.68
2023-10-05T06:00:47.762Z,11.76
2023-10-05T06:03:35.100Z,11.79
2023-10-05T06:06:22.134Z,11.83
2023-10-05T06:09:08.774Z,11.81
2023-10-05T06:11:55.602Z,11.88
2023-10-05T06:14:43.214Z,11.90
2023-10-05T06:17:31.080Z,11.88
2023-10-05T06:20:19.114Z,11.90
2023-10-05T06:23:07.291Z,11.96
2023-10-05T06:25:54.781Z,12.03
2023-10-05T06:28:41.451Z,12.10
2023-10-05T06:31:28.877Z,12.19
2023-10-05T06:34:15.502Z,12.22
2023-10-05T06:37:03.331Z,12.47
2023-10-05T06:39:49.890Z,12.56
2023-10-05T06:42:36.561Z,12.66
2023-10-05T06:45:24.935Z,12.71
2023-10-05T06:48:11.504Z,12.71
2023-10-05T06:50:59.471Z,12.73
2023-10-05T06:53:46.187Z,12.76
2023-10-05T06:56:32.686Z,12.80
2023-10-05T06:59:22.548Z,12.81
2023-10-05T07:02:14.482Z,12.82
2023-10-05T07:05:02.667Z,12.86
2023-10-05T07:07:49.036Z,12.90
2023-10-05T07:10:35.393Z,12.88
2023-10-05T07:13:24.203Z,12.96
2023-10-05T07:16:11.140Z,13.06
2023-10-05T07:18:58.548Z,13.15
2023-10-05T07:21:45.898Z,13.26
2023-10-05T07:24:32.865Z,13.33
2023-10-05T07:27:20.004Z,13.36
2023-10-05T07:30:09.953Z,13.41
2023-10-05T07:33:05.157Z,13.46
2023-10-05T07:36:00.607Z,13.54
2023-10-05T07:38:47.078Z,13.61
2023-10-05T07:41:34.014Z,13.57
2023-10-05T07:44:20.619Z,13.59
2023-10-05T07:47:08.015Z,13.60
2023-10-05T07:49:55.168Z,13.64
2023-10-05T07:52:45.296Z,13.76
2023-10-05T07:55:32.514Z,13.89
2023-10-05T07:58:20.531Z,13.87
2023-10-05T08:01:07.271Z,13.98
2023-10-05T08:03:54.585Z,14.07
2023-10-05T08:06:45.199Z,14.14
2023-10-05T08:09:31.466Z,14.17
2023-10-05T08:12:17.991Z,14.31
2023-10-05T08:15:06.583Z,14.43
2023-10-05T08:17:52.954Z,14.43
2023-10-05T08:20:39.628Z,14.34
2023-10-05T08:23:26.946Z,14.34
2023-10-05T08:26:14.198Z,14.45
2023-10-05T08:29:01.028Z,14.49
2023-10-05T08:31:47.987Z,14.40
2023-10-05T08:34:34.565Z,14.28
2023-10-05T08:37:23.394Z,14.30
2023-10-05T08:40:40.013Z,14.35
2023-10-05T08:43:26.416Z,14.40
2023-10-05T08:46:13.440Z,14.46
2023-10-05T08:49:08.840Z,14.51
2023-10-05T08:52:04.627Z,14.56
2023-10-05T08:54:52.414Z,14.62
2023-10-05T08:57:39.041Z,14.66
2023-10-05T09:00:39.689Z,14.69
2023-10-05T09:03:31.215Z,14.72
2023-10-05T09:06:21.928Z,14.70
2023-10-05T09:09:10.921Z,14.67
2023-10-05T09:11:57.743Z,14.68
2023-10-05T09:14:45.133Z,14.71
2023-10-05T09:17:34.936Z,14.83
2023-10-05T09:20:23.065Z,14.93
2023-10-05T09:23:15.008Z,15.11
2023-10-05T09:26:02.448Z,15.23
2023-10-05T09:28:53.293Z,15.22
2023-10-05T09:34:35.482Z,15.07
2023-10-05T09:37:25.903Z,15.15
2023-10-05T09:40:18.266Z,15.18
2023-10-05T09:43:07.169Z,15.17
2023-10-05T09:45:53.931Z,15.16
2023-10-05T09:48:41.495Z,15.09
2023-10-05T09:51:28.926Z,15.14
2023-10-05T09:54:18.221Z,15.09
2023-10-05T09:57:11.724Z,15.00
2023-10-05T10:00:01.211Z,14.98
2023-10-05T10:02:47.835Z,14.90
2023-10-05T10:05:42.974Z,14.84
2023-10-05T10:08:32.531Z,14.83
2023-10-05T10:11:20.851Z,14.82
2023-10-05T10:14:11.346Z,14.74
2023-10-05T10:17:01.841Z,14.76
2023-10-05T10:19:56.531Z,14.69
2023-10-05T10:22:51.793Z,14.60
2023-10-05T10:25:42.084Z,14.51
2023-10-05T10:28:52.255Z,14.37
2023-10-05T10:31:50.115Z,14.28
2023-10-05T10:34:51.017Z,14.20
2023-10-05T10:37:46.121Z,14.10
2023-10-05T10:40:33.988Z,14.04
2023-10-05T10:43:33.410Z,14.01
2023-10-05T10:46:35.213Z,13.97
2023-10-05T10:49:22.490Z,13.94
2023-10-05T10:52:23.400Z,13.97
2023-10-05T10:55:24.217Z,14.04
2023-10-05T10:58:15.072Z,14.01
2023-10-05T11:01:05.821Z,13.92
2023-10-05T11:04:02.203Z,13.89
2023-10-05T11:06:49.405Z,13.87
2023-10-05T11:09:38.984Z,13.82
2023-10-05T11:12:25.715Z,13.70
2023-10-05T11:15:12.645Z,13.57
2023-10-05T11:18:00.806Z,13.50
2023-10-05T11:20:53.602Z,13.56
2023-10-05T11:23:47.013Z,13.62
2023-10-05T11:26:44.521Z,13.57
2023-10-05T11:29:47.167Z,13.55
2023-10-05T11:33:00.832Z,13.45
2023-10-05T11:35:53.503Z,13.37
2023-10-05T11:38:40.380Z,13.32
2023-10-05T11:41:31.121Z,13.30
2023-10-05T11:44:25.275Z,13.28
2023-10-05T11:47:47.414Z,13.28
2023-10-05T11:50:34.459Z,13.24
2023-10-05T11:53:22.970Z,13.18
2023-10-05T11:56:10.969Z,13.14
2023-10-05T11:59:01.506Z,13.17
2023-10-05T12:01:48.875Z,13.28
2023-10-05T12:04:40.958Z,13.29
2023-10-05T12:07:27.925Z,13.32
2023-10-05T12:10:14.813Z,13.31
2023-10-05T12:13:03.676Z,13.50
2023-10-05T12:15:52.830Z,13.94
2023-10-05T12:18:43.301Z,14.70
2023-10-05T12:21:30.101Z,15.37
2023-10-05T12:24:36.814Z,16.08
2023-10-05T12:27:23.587Z,16.65
2023-10-05T12:30:13.737Z,17.51
2023-10-05T12:33:02.773Z,18.20
2023-10-05T12:35:53.899Z,19.04
2023-10-05T12:38:40.760Z,19.78
2023-10-05T12:41:37.796Z,20.45
2023-10-05T12:44:25.040Z,20.84
2023-10-05T12:47:11.911Z,21.12
2023-10-05T12:49:58.291Z,21.16
2023-10-05T12:52:44.905Z,21.51
2023-10-05T12:55:31.673Z,21.78
2023-10-05T12:58:18.332Z,22.09
2023-10-05T13:01:14.248Z,21.45
2023-10-05T13:04:02.517Z,21.88
2023-10-05T13:06:49.247Z,21.77
2023-10-05T13:09:36.225Z,21.80
2023-10-05T13:12:22.788Z,21.25
2023-10-05T13:15:10.314Z,20.57
2023-10-05T13:17:57.413Z,21.46
2023-10-05T13:20:45.360Z,20.72
2023-10-05T13:23:32.289Z,21.15
2023-10-05T13:26:19.493Z,22.34
2023-10-05T13:29:09.230Z,23.07
2023-10-05T13:31:57.415Z,23.26
2023-10-05T13:34:47.349Z,22.11
2023-10-05T13:37:35.610Z,21.94
2023-10-05T13:40:29.558Z,22.45
2023-10-05T13:43:15.958Z,23.62
2023-10-05T13:46:23.376Z,24.05
2023-10-05T13:49:10.443Z,24.72
2023-10-05T13:52:00.068Z,23.62
2023-10-05T13:54:47.803Z,22.33
2023-10-05T13:57:34.401Z,21.02
2023-10-05T14:00:21.069Z,19.89
2023-10-05T14:03:07.720Z,19.34
2023-10-05T14:06:02.818Z,19.80
2023-10-05T14:08:49.503Z,21.36
2023-10-05T14:11:39.317Z,22.91
2023-10-05T14:14:26.488Z,23.76
2023-10-05T14:17:13.209Z,22.69
2023-10-05T14:19:59.890Z,21.82
2023-10-05T14:22:47.182Z,20.81
2023-10-05T14:25:34.103Z,20.04
2023-10-05T14:28:25.103Z,19.97
2023-10-05T14:31:12.388Z,20.48
2023-10-05T14:34:01.480Z,21.85
2023-10-05T14:36:50.169Z,21.44
2023-10-05T14:39:38.483Z,20.78
2023-10-05T14:42:25.956Z,20.16
2023-10-05T14:45:15.778Z,19.54
2023-10-05T14:48:08.877Z,20.45
2023-10-05T14:50:56.656Z,21.88
2023-10-05T14:53:44.409Z,22.50
2023-10-05T14:56:30.970Z,22.03
2023-10-05T14:59:17.961Z,22.37
2023-10-05T15:02:04.317Z,23.02
2023-10-05T15:04:50.650Z,22.58
2023-10-05T15:07:48.404Z,22.85
2023-10-05T15:10:35.407Z,23.08
2023-10-05T15:13:22.438Z,22.09
2023-10-05T15:16:10.419Z,21.08
2023-10-05T15:18:57.261Z,19.81
2023-10-05T15:21:43.754Z,18.84
2023-10-05T15:24:32.268Z,18.06
2023-10-05T15:27:19.102Z,17.37
2023-10-05T15:30:11.105Z,16.91
2023-10-05T15:32:57.358Z,16.41
2023-10-05T15:35:44.405Z,16.09
2023-10-05T15:38:31.112Z,15.84
2023-10-05T15:41:19.872Z,15.64
2023-10-05T15:44:09.467Z,15.54
2023-10-05T15:46:56.737Z,15.43
2023-10-05T15:49:43.429Z,15.33
2023-10-05T15:52:29.980Z,15.19
2023-10-05T15:55:18.268Z,15.06
2023-10-05T15:58:08.525Z,14.95
2023-10-05T16:00:57.085Z,14.83
2023-10-05T16:03:43.427Z,14.74
2023-10-05T16:06:30.498Z,14.64
2023-10-05T16:09:17.189Z,14.53
2023-10-05T16:12:06.172Z,14.45
2023-10-05T16:14:54.572Z,14.37
2023-10-05T16:17:49.373Z,14.27
2023-10-05T16:20:38.916Z,14.24
2023-10-05T16:23:25.960Z,14.19
2023-10-05T16:26:13.206Z,14.14
2023-10-05T16:29:00.192Z,14.02
2023-10-05T16:34:37.856Z,13.84
2023-10-05T16:37:24.528Z,13.69
2023-10-05T16:40:13.710Z,13.69
2023-10-05T16:43:01.820Z,13.60
2023-10-05T16:45:48.784Z,13.52
2023-10-05T16:48:36.972Z,13.47
2023-10-05T16:51:23.432Z,13.40
2023-10-05T16:54:11.105Z,13.33
2023-10-05T16:56:58.277Z,13.25
2023-10-05T16:59:45.256Z,13.20
2023-10-05T17:02:32.016Z,13.14
2023-10-05T17:05:20.893Z,13.08
2023-10-05T17:08:07.818Z,13.01
2023-10-05T17:10:54.140Z,12.95
2023-10-05T17:13:41.154Z,12.91
2023-10-05T17:16:30.717Z,12.86
2023-10-05T17:19:17.153Z,12.79
2023-10-05T17:22:03.750Z,12.71
2023-10-05T17:24:54.986Z,12.66
2023-10-05T17:27:42.075Z,12.60
2023-10-05T17:30:28.474Z,12.52
2023-10-05T17:33:15.079Z,12.46
2023-10-05T17:36:01.892Z,12.40
2023-10-05T17:38:49.471Z,12.34
2023-10-05T17:41:36.312Z,12.31
2023-10-05T17:44:23.271Z,12.28
2023-10-05T17:47:10.962Z,12.26
2023-10-05T17:49:58.012Z,12.21
2023-10-05T17:52:46.556Z,12.12
2023-10-05T17:55:36.534Z,12.14
2023-10-05T17:58:27.491Z,12.12
2023-10-05T18:01:18.758Z,12.07
2023-10-05T18:04:06.908Z,12.03
2023-10-05T18:06:53.324Z,11.99
2023-10-05T18:09:40.071Z,11.96
2023-10-05T18:12:26.757Z,11.94
2023-10-05T18:15:15.547Z,11.91
2023-10-05T18:18:03.433Z,11.90
2023-10-05T18:20:50.736Z,11.88
2023-10-05T18:23:39.153Z,11.85
2023-10-05T18:26:26.505Z,11.82
2023-10-05T18:29:14.161Z,11.78
2023-10-05T18:32:03.221Z,11.77
2023-10-05T18:34:50.447Z,11.76
2023-10-05T18:37:38.464Z,11.74
2023-10-05T18:40:25.628Z,11.72
2023-10-05T18:43:14.405Z,11.71
2023-10-05T18:46:01.889Z,11.72
2023-10-05T18:48:48.781Z,11.73
2023-10-05T18:51:37.938Z,11.72
2023-10-05T18:54:25.078Z,11.65
2023-10-05T18:57:13.549Z,11.68
2023-10-05T19:00:03.086Z,11.69
2023-10-05T19:02:50.741Z,11.70
2023-10-05T19:05:38.083Z,11.69
2023-10-05T19:08:24.734Z,11.70
2023-10-05T19:11:11.997Z,11.75
2023-10-05T19:13:58.828Z,11.79
2023-10-05T19:16:45.818Z,11.82
2023-10-05T19:19:32.942Z,11.86
2023-10-05T19:22:20.560Z,11.91
2023-10-05T19:25:07.943Z,11.96
2023-10-05T19:27:54.970Z,11.99
2023-10-05T19:30:42.153Z,12.01
2023-10-05T19:33:29.103Z,11.97
2023-10-05T19:36:16.396Z,12.09
2023-10-05T19:39:05.053Z,12.09
2023-10-05T19:41:55.254Z,12.06
2023-10-05T19:44:42.352Z,12.04
2023-10-05T19:47:30.072Z,12.02
2023-10-05T19:50:17.059Z,11.99
2023-10-05T19:53:03.989Z,11.97
2023-10-05T19:55:57.992Z,11.96
2023-10-05T19:58:44.767Z,11.95
2023-10-05T20:01:31.326Z,11.93
2023-10-05T20:04:18.027Z,11.91
2023-10-05T20:07:08.729Z,11.88
2023-10-05T20:09:57.795Z,11.84
2023-10-05T20:12:44.520Z,11.78
2023-10-05T20:15:31.357Z,11.70
2023-10-05T20:18:18.175Z,11.55
2023-10-05T20:21:13.265Z,11.52
2023-10-05T20:24:00.182Z,11.45
2023-10-05T20:26:46.705Z,11.37
2023-10-05T20:29:33.092Z,11.29
2023-10-05T20:32:19.671Z,11.33
2023-10-05T20:35:07.526Z,11.35
2023-10-05T20:37:54.118Z,11.37
2023-10-05T20:40:40.896Z,11.37
2023-10-05T20:43:28.246Z,11.38
2023-10-05T20:46:15.145Z,11.38
2023-10-05T20:49:01.691Z,11.38
2023-10-05T20:51:48.184Z,11.36
2023-10-05T20:54:35.115Z,11.34
2023-10-05T20:57:21.789Z,11.31
2023-10-05T21:00:10.004Z,11.27
2023-10-05T21:02:56.615Z,11.22
2023-10-05T21:05:43.388Z,11.15
2023-10-05T21:08:30.325Z,11.08
2023-10-05T21:11:16.596Z,11.01
2023-10-05T21:14:03.192Z,10.95
2023-10-05T21:16:53.142Z,10.86
2023-10-05T21:19:40.555Z,10.79
2023-10-05T21:22:27.067Z,10.75
2023-10-05T21:25:14.837Z,10.69
2023-10-05T21:28:01.425Z,10.64
2023-10-05T21:30:48.429Z,10.57
2023-10-05T21:33:35.192Z,10.49
2023-10-05T21:36:22.165Z,10.44
2023-10-05T21:39:08.992Z,10.37
2023-10-05T21:41:55.871Z,10.30
2023-10-05T21:44:42.485Z,10.22
2023-10-05T21:47:29.179Z,10.15
2023-10-05T21:50:15.774Z,10.11
2023-10-05T21:53:05.472Z,10.08
2023-10-05T21:55:52.300Z,10.03
2023-10-05T21:58:39.147Z,9.98
2023-10-05T22:01:25.870Z,9.93
2023-10-05T22:04:12.682Z,9.89
2023-10-05T22:06:59.368Z,9.85
2023-10-05T22:09:46.244Z,9.80
2023-10-05T22:12:36.001Z,9.72
2023-10-05T22:15:22.790Z,9.70
2023-10-05T22:18:11.660Z,9.67
2023-10-05T22:20:59.159Z,9.65
2023-10-05T22:23:45.734Z,9.61
2023-10-05T22:26:32.358Z,9.56
2023-10-05T22:29:19.230Z,9.54
2023-10-05T22:32:05.939Z,9.51
2023-10-05T22:34:52.777Z,9.47
2023-10-05T22:37:40.045Z,9.46
2023-10-05T22:40:26.236Z,9.43
2023-10-05T22:43:12.867Z,9.41
2023-10-05T22:45:59.277Z,9.39
2023-10-05T22:48:45.767Z,9.32
2023-10-05T22:51:32.115Z,9.31
2023-10-05T22:54:18.659Z,9.28
2023-10-05T22:57:05.336Z,9.24
2023-10-05T22:59:52.662Z,9.23
2023-10-05T23:02:39.833Z,9.24
2023-10-05T23:05:27.124Z,9.25
2023-10-05T23:08:13.619Z,9.23
2023-10-05T23:11:01.083Z,9.16
2023-10-05T23:13:50.334Z,9.16
2023-10-05T23:16:37.259Z,9.13
2023-10-05T23:19:23.625Z,9.11
2023-10-05T23:22:12.001Z,9.08
2023-10-05T23:24:59.025Z,9.04
2023-10-05T23:27:47.667Z,9.02
2023-10-05T23:30:34.332Z,9.01
2023-10-05T23:33:26.956Z,9.00
2023-10-05T23:36:16.751Z,8.96
2023-10-05T23:39:09.907Z,8.93
2023-10-05T23:41:57.854Z,8.86
2023-10-05T23:44:47.808Z,8.88
2023-10-05T23:47:37.614Z,8.87
2023-10-05T23:50:30.904Z,8.85
2023-10-05T23:53:17.361Z,8.82
2023-10-05T23:56:10.406Z,8.81
2023-10-05T23:58:57.271Z,8.79
